sensor_id;sensor_type;location;lat;lon;timestamp;P1;durP1;ratioP1;P2;durP2;ratioP2
57071;SDS011;42956;51.366;11.298;2023-06-05T00:00:25;3.47;;;2.38;;
57071;SDS011;42956;51.366;11.298;2023-06-05T00:02:55;2.55;;;2.13;;
57071;SDS011;42956;51.366;11.298;2023-06-05T00:05:26;5.38;;;2.05;;
57071;SDS011;42956;51.366;11.298;2023-06-05T00:07:59;5.18;;;1.90;;
57071;SDS011;42956;51.366;11.298;2023-06-05T00:10:29;4.30;;;2.22;;
57071;SDS011;42956;51.366;11.298;2023-06-05T00:12:58;4.75;;;2.03;;
57071;SDS011;42956;51.366;11.298;2023-06-05T00:15:28;3.35;;;2.08;;
57071;SDS011;42956;51.366;11.298;2023-06-05T00:18:00;3.35;;;2.25;;
57071;SDS011;42956;51.366;11.298;2023-06-05T00:20:31;3.90;;;2.45;;
57071;SDS011;42956;51.366;11.298;2023-06-05T00:23:03;4.68;;;2.45;;
57071;SDS011;42956;51.366;11.298;2023-06-05T00:25:33;2.53;;;1.92;;
57071;SDS011;42956;51.366;11.298;2023-06-05T00:28:03;3.00;;;1.90;;
57071;SDS011;42956;51.366;11.298;2023-06-05T00:30:32;3.20;;;1.60;;
57071;SDS011;42956;51.366;11.298;2023-06-05T00:33:03;3.33;;;2.28;;
57071;SDS011;42956;51.366;11.298;2023-06-05T00:35:34;3.78;;;2.63;;
57071;SDS011;42956;51.366;11.298;2023-06-05T00:38:06;3.40;;;2.25;;
57071;SDS011;42956;51.366;11.298;2023-06-05T00:40:36;4.97;;;2.30;;
57071;SDS011;42956;51.366;11.298;2023-06-05T00:43:06;5.53;;;1.98;;
57071;SDS011;42956;51.366;11.298;2023-06-05T00:45:36;7.88;;;2.95;;
57071;SDS011;42956;51.366;11.298;2023-06-05T00:48:06;4.93;;;2.00;;
57071;SDS011;42956;51.366;11.298;2023-06-05T00:50:37;3.38;;;2.33;;
57071;SDS011;42956;51.366;11.298;2023-06-05T00:53:10;5.78;;;2.30;;
57071;SDS011;42956;51.366;11.298;2023-06-05T00:55:40;2.95;;;2.17;;
57071;SDS011;42956;51.366;11.298;2023-06-05T00:58:10;4.43;;;2.42;;
57071;SDS011;42956;51.366;11.298;2023-06-05T01:00:40;5.15;;;3.10;;
57071;SDS011;42956;51.366;11.298;2023-06-05T01:03:10;5.72;;;2.10;;
57071;SDS011;42956;51.366;11.298;2023-06-05T01:05:41;4.32;;;2.38;;
57071;SDS011;42956;51.366;11.298;2023-06-05T01:08:13;2.75;;;1.60;;
57071;SDS011;42956;51.366;11.298;2023-06-05T01:13:14;8.18;;;2.17;;
57071;SDS011;42956;51.366;11.298;2023-06-05T01:15:47;5.03;;;1.83;;
57071;SDS011;42956;51.366;11.298;2023-06-05T01:18:17;2.25;;;1.83;;
57071;SDS011;42956;51.366;11.298;2023-06-05T01:20:49;4.10;;;2.08;;
57071;SDS011;42956;51.366;11.298;2023-06-05T01:23:26;5.25;;;2.00;;
57071;SDS011;42956;51.366;11.298;2023-06-05T01:25:57;4.07;;;2.13;;
57071;SDS011;42956;51.366;11.298;2023-06-05T01:28:28;2.13;;;1.77;;
57071;SDS011;42956;51.366;11.298;2023-06-05T01:31:01;7.95;;;2.05;;
57071;SDS011;42956;51.366;11.298;2023-06-05T01:33:33;2.33;;;1.83;;
57071;SDS011;42956;51.366;11.298;2023-06-05T01:36:08;1.98;;;1.65;;
57071;SDS011;42956;51.366;11.298;2023-06-05T01:38:42;4.10;;;2.05;;
57071;SDS011;42956;51.366;11.298;2023-06-05T01:41:13;3.60;;;1.95;;
57071;SDS011;42956;51.366;11.298;2023-06-05T01:43:44;3.08;;;2.10;;
57071;SDS011;42956;51.366;11.298;2023-06-05T01:46:21;4.53;;;2.72;;
57071;SDS011;42956;51.366;11.298;2023-06-05T01:48:52;5.15;;;2.67;;
57071;SDS011;42956;51.366;11.298;2023-06-05T01:51:22;4.50;;;2.25;;
57071;SDS011;42956;51.366;11.298;2023-06-05T01:53:55;6.22;;;2.10;;
57071;SDS011;42956;51.366;11.298;2023-06-05T01:56:24;1.75;;;1.55;;
57071;SDS011;42956;51.366;11.298;2023-06-05T01:58:57;4.32;;;2.17;;
57071;SDS011;42956;51.366;11.298;2023-06-05T02:01:33;5.75;;;2.22;;
57071;SDS011;42956;51.366;11.298;2023-06-05T02:04:03;5.82;;;2.33;;
57071;SDS011;42956;51.366;11.298;2023-06-05T02:06:34;5.00;;;2.17;;
57071;SDS011;42956;51.366;11.298;2023-06-05T02:09:13;2.55;;;1.92;;
57071;SDS011;42956;51.366;11.298;2023-06-05T02:11:44;6.30;;;2.17;;
57071;SDS011;42956;51.366;11.298;2023-06-05T02:14:15;6.93;;;2.55;;
57071;SDS011;42956;51.366;11.298;2023-06-05T02:16:46;4.53;;;2.28;;
57071;SDS011;42956;51.366;11.298;2023-06-05T02:19:17;3.03;;;2.10;;
57071;SDS011;42956;51.366;11.298;2023-06-05T02:21:47;5.43;;;1.83;;
57071;SDS011;42956;51.366;11.298;2023-06-05T02:24:21;4.15;;;2.50;;
57071;SDS011;42956;51.366;11.298;2023-06-05T02:26:51;5.60;;;2.10;;
57071;SDS011;42956;51.366;11.298;2023-06-05T02:29:22;3.13;;;1.73;;
57071;SDS011;42956;51.366;11.298;2023-06-05T02:31:51;11.80;;;2.83;;
57071;SDS011;42956;51.366;11.298;2023-06-05T02:34:22;4.68;;;2.05;;
57071;SDS011;42956;51.366;11.298;2023-06-05T02:36:51;4.40;;;2.05;;
57071;SDS011;42956;51.366;11.298;2023-06-05T02:39:25;3.55;;;2.03;;
57071;SDS011;42956;51.366;11.298;2023-06-05T02:41:55;4.18;;;2.03;;
57071;SDS011;42956;51.366;11.298;2023-06-05T02:44:24;6.25;;;2.13;;
57071;SDS011;42956;51.366;11.298;2023-06-05T02:46:54;5.30;;;2.28;;
57071;SDS011;42956;51.366;11.298;2023-06-05T02:49:24;6.45;;;2.58;;
57071;SDS011;42956;51.366;11.298;2023-06-05T02:51:54;3.08;;;2.13;;
57071;SDS011;42956;51.366;11.298;2023-06-05T02:54:26;12.25;;;2.65;;
57071;SDS011;42956;51.366;11.298;2023-06-05T02:56:56;4.40;;;1.88;;
57071;SDS011;42956;51.366;11.298;2023-06-05T02:59:27;3.25;;;2.08;;
57071;SDS011;42956;51.366;11.298;2023-06-05T03:01:58;9.70;;;2.58;;
57071;SDS011;42956;51.366;11.298;2023-06-05T03:04:29;4.53;;;2.35;;
57071;SDS011;42956;51.366;11.298;2023-06-05T03:07:00;6.22;;;2.67;;
57071;SDS011;42956;51.366;11.298;2023-06-05T03:09:33;2.78;;;2.22;;
57071;SDS011;42956;51.366;11.298;2023-06-05T03:12:03;6.03;;;2.22;;
57071;SDS011;42956;51.366;11.298;2023-06-05T03:14:33;6.90;;;3.05;;
57071;SDS011;42956;51.366;11.298;2023-06-05T03:17:03;6.22;;;2.33;;
57071;SDS011;42956;51.366;11.298;2023-06-05T03:19:34;3.72;;;2.00;;
57071;SDS011;42956;51.366;11.298;2023-06-05T03:22:04;3.33;;;2.30;;
57071;SDS011;42956;51.366;11.298;2023-06-05T03:24:36;5.28;;;2.97;;
57071;SDS011;42956;51.366;11.298;2023-06-05T03:27:06;4.30;;;2.42;;
57071;SDS011;42956;51.366;11.298;2023-06-05T03:29:36;3.20;;;2.17;;
57071;SDS011;42956;51.366;11.298;2023-06-05T03:32:06;4.82;;;2.15;;
57071;SDS011;42956;51.366;11.298;2023-06-05T03:34:37;4.90;;;2.40;;
57071;SDS011;42956;51.366;11.298;2023-06-05T03:37:09;7.13;;;1.90;;
57071;SDS011;42956;51.366;11.298;2023-06-05T03:39:42;2.35;;;1.67;;
57071;SDS011;42956;51.366;11.298;2023-06-05T03:42:12;12.95;;;2.45;;
57071;SDS011;42956;51.366;11.298;2023-06-05T03:44:42;5.88;;;1.98;;
57071;SDS011;42956;51.366;11.298;2023-06-05T03:47:12;5.53;;;2.30;;
57071;SDS011;42956;51.366;11.298;2023-06-05T03:49:42;5.85;;;2.40;;
57071;SDS011;42956;51.366;11.298;2023-06-05T03:52:14;6.33;;;2.67;;
57071;SDS011;42956;51.366;11.298;2023-06-05T03:54:46;6.35;;;2.45;;
57071;SDS011;42956;51.366;11.298;2023-06-05T03:57:20;4.72;;;2.25;;
57071;SDS011;42956;51.366;11.298;2023-06-05T03:59:51;2.95;;;2.40;;
57071;SDS011;42956;51.366;11.298;2023-06-05T04:02:21;5.90;;;2.35;;
57071;SDS011;42956;51.366;11.298;2023-06-05T04:04:51;5.00;;;2.47;;
57071;SDS011;42956;51.366;11.298;2023-06-05T04:07:21;3.53;;;2.65;;
57071;SDS011;42956;51.366;11.298;2023-06-05T04:09:53;6.90;;;2.53;;
57071;SDS011;42956;51.366;11.298;2023-06-05T04:12:23;3.83;;;2.35;;
57071;SDS011;42956;51.366;11.298;2023-06-05T04:14:53;4.13;;;2.20;;
57071;SDS011;42956;51.366;11.298;2023-06-05T04:17:23;3.58;;;2.80;;
57071;SDS011;42956;51.366;11.298;2023-06-05T04:19:53;3.75;;;2.25;;
57071;SDS011;42956;51.366;11.298;2023-06-05T04:22:23;3.72;;;2.38;;
57071;SDS011;42956;51.366;11.298;2023-06-05T04:24:55;4.13;;;2.00;;
57071;SDS011;42956;51.366;11.298;2023-06-05T04:27:25;6.78;;;2.38;;
57071;SDS011;42956;51.366;11.298;2023-06-05T04:29:56;6.18;;;3.00;;
57071;SDS011;42956;51.366;11.298;2023-06-05T04:32:26;11.05;;;2.63;;
57071;SDS011;42956;51.366;11.298;2023-06-05T04:34:56;7.78;;;2.97;;
57071;SDS011;42956;51.366;11.298;2023-06-05T04:37:26;4.65;;;2.80;;
57071;SDS011;42956;51.366;11.298;2023-06-05T04:39:59;3.70;;;2.72;;
57071;SDS011;42956;51.366;11.298;2023-06-05T04:42:32;5.75;;;2.40;;
57071;SDS011;42956;51.366;11.298;2023-06-05T04:45:03;9.60;;;2.88;;
57071;SDS011;42956;51.366;11.298;2023-06-05T04:47:34;7.25;;;2.55;;
57071;SDS011;42956;51.366;11.298;2023-06-05T04:50:05;4.72;;;2.10;;
57071;SDS011;42956;51.366;11.298;2023-06-05T04:52:35;3.47;;;2.60;;
57071;SDS011;42956;51.366;11.298;2023-06-05T04:55:10;4.15;;;2.75;;
57071;SDS011;42956;51.366;11.298;2023-06-05T04:57:42;4.10;;;2.83;;
57071;SDS011;42956;51.366;11.298;2023-06-05T05:00:13;15.73;;;3.17;;
57071;SDS011;42956;51.366;11.298;2023-06-05T05:02:43;10.10;;;3.20;;
57071;SDS011;42956;51.366;11.298;2023-06-05T05:05:12;5.35;;;3.05;;
57071;SDS011;42956;51.366;11.298;2023-06-05T05:07:43;11.55;;;3.00;;
57071;SDS011;42956;51.366;11.298;2023-06-05T05:10:15;3.85;;;3.03;;
57071;SDS011;42956;51.366;11.298;2023-06-05T05:12:45;7.13;;;3.28;;
57071;SDS011;42956;51.366;11.298;2023-06-05T05:15:15;6.55;;;2.83;;
57071;SDS011;42956;51.366;11.298;2023-06-05T05:17:45;6.70;;;3.25;;
57071;SDS011;42956;51.366;11.298;2023-06-05T05:20:15;7.40;;;3.08;;
57071;SDS011;42956;51.366;11.298;2023-06-05T05:22:45;10.80;;;3.35;;
57071;SDS011;42956;51.366;11.298;2023-06-05T05:25:18;5.80;;;3.00;;
57071;SDS011;42956;51.366;11.298;2023-06-05T05:27:48;9.38;;;3.13;;
57071;SDS011;42956;51.366;11.298;2023-06-05T05:30:18;9.30;;;3.60;;
57071;SDS011;42956;51.366;11.298;2023-06-05T05:32:47;23.38;;;3.58;;
57071;SDS011;42956;51.366;11.298;2023-06-05T05:35:17;13.60;;;3.20;;
57071;SDS011;42956;51.366;11.298;2023-06-05T05:37:47;9.32;;;3.10;;
57071;SDS011;42956;51.366;11.298;2023-06-05T05:40:20;6.60;;;3.35;;
57071;SDS011;42956;51.366;11.298;2023-06-05T05:42:50;5.63;;;2.83;;
57071;SDS011;42956;51.366;11.298;2023-06-05T05:45:20;10.13;;;3.35;;
57071;SDS011;42956;51.366;11.298;2023-06-05T05:47:49;7.65;;;2.97;;
57071;SDS011;42956;51.366;11.298;2023-06-05T05:50:20;7.55;;;2.10;;
57071;SDS011;42956;51.366;11.298;2023-06-05T05:52:49;6.72;;;2.83;;
57071;SDS011;42956;51.366;11.298;2023-06-05T05:55:22;9.57;;;3.30;;
57071;SDS011;42956;51.366;11.298;2023-06-05T05:57:52;6.07;;;3.00;;
57071;SDS011;42956;51.366;11.298;2023-06-05T06:00:22;13.43;;;2.75;;
57071;SDS011;42956;51.366;11.298;2023-06-05T06:02:52;7.90;;;2.90;;
57071;SDS011;42956;51.366;11.298;2023-06-05T06:05:23;5.35;;;2.92;;
57071;SDS011;42956;51.366;11.298;2023-06-05T06:07:52;10.90;;;4.35;;
57071;SDS011;42956;51.366;11.298;2023-06-05T06:10:25;11.02;;;4.18;;
57071;SDS011;42956;51.366;11.298;2023-06-05T06:12:55;10.35;;;3.92;;
57071;SDS011;42956;51.366;11.298;2023-06-05T06:15:26;9.23;;;3.65;;
57071;SDS011;42956;51.366;11.298;2023-06-05T06:17:56;6.97;;;3.58;;
57071;SDS011;42956;51.366;11.298;2023-06-05T06:20:27;12.68;;;3.45;;
57071;SDS011;42956;51.366;11.298;2023-06-05T06:22:56;10.68;;;2.97;;
57071;SDS011;42956;51.366;11.298;2023-06-05T06:25:30;7.03;;;3.45;;
57071;SDS011;42956;51.366;11.298;2023-06-05T06:28:00;12.95;;;3.53;;
57071;SDS011;42956;51.366;11.298;2023-06-05T06:30:31;9.27;;;4.32;;
57071;SDS011;42956;51.366;11.298;2023-06-05T06:33:02;5.57;;;4.43;;
57071;SDS011;42956;51.366;11.298;2023-06-05T06:35:32;7.65;;;3.08;;
57071;SDS011;42956;51.366;11.298;2023-06-05T06:38:03;5.15;;;3.08;;
57071;SDS011;42956;51.366;11.298;2023-06-05T06:40:35;3.75;;;2.70;;
57071;SDS011;42956;51.366;11.298;2023-06-05T06:43:05;7.05;;;2.83;;
57071;SDS011;42956;51.366;11.298;2023-06-05T06:45:35;9.52;;;3.00;;
57071;SDS011;42956;51.366;11.298;2023-06-05T06:48:05;14.60;;;2.92;;
57071;SDS011;42956;51.366;11.298;2023-06-05T06:50:35;4.45;;;2.70;;
57071;SDS011;42956;51.366;11.298;2023-06-05T06:53:05;7.22;;;2.60;;
57071;SDS011;42956;51.366;11.298;2023-06-05T06:55:37;3.72;;;2.47;;
57071;SDS011;42956;51.366;11.298;2023-06-05T07:00:37;3.67;;;2.05;;
57071;SDS011;42956;51.366;11.298;2023-06-05T07:03:07;6.78;;;2.00;;
57071;SDS011;42956;51.366;11.298;2023-06-05T07:05:40;8.02;;;2.60;;
57071;SDS011;42956;51.366;11.298;2023-06-05T07:08:10;6.25;;;2.42;;
57071;SDS011;42956;51.366;11.298;2023-06-05T07:10:42;3.78;;;1.90;;
57071;SDS011;42956;51.366;11.298;2023-06-05T07:13:12;5.18;;;2.22;;
57071;SDS011;42956;51.366;11.298;2023-06-05T07:15:42;3.58;;;2.05;;
57071;SDS011;42956;51.366;11.298;2023-06-05T07:18:12;4.45;;;2.08;;
57071;SDS011;42956;51.366;11.298;2023-06-05T07:20:42;5.80;;;2.15;;
57071;SDS011;42956;51.366;11.298;2023-06-05T07:23:12;4.63;;;2.10;;
57071;SDS011;42956;51.366;11.298;2023-06-05T07:25:49;3.90;;;2.03;;
57071;SDS011;42956;51.366;11.298;2023-06-05T07:30:51;4.25;;;2.10;;
57071;SDS011;42956;51.366;11.298;2023-06-05T07:33:21;6.57;;;2.30;;
57071;SDS011;42956;51.366;11.298;2023-06-05T07:35:58;6.72;;;2.63;;
57071;SDS011;42956;51.366;11.298;2023-06-05T07:38:27;4.47;;;2.40;;
57071;SDS011;42956;51.366;11.298;2023-06-05T07:41:02;3.95;;;1.83;;
57071;SDS011;42956;51.366;11.298;2023-06-05T07:43:32;5.18;;;2.80;;
57071;SDS011;42956;51.366;11.298;2023-06-05T07:46:02;3.97;;;2.15;;
57071;SDS011;42956;51.366;11.298;2023-06-05T07:48:32;7.70;;;2.00;;
57071;SDS011;42956;51.366;11.298;2023-06-05T07:51:05;5.57;;;2.55;;
57071;SDS011;42956;51.366;11.298;2023-06-05T07:53:36;4.25;;;1.88;;
57071;SDS011;42956;51.366;11.298;2023-06-05T07:56:09;2.13;;;1.60;;
57071;SDS011;42956;51.366;11.298;2023-06-05T07:58:39;6.45;;;2.05;;
57071;SDS011;42956;51.366;11.298;2023-06-05T08:01:09;3.28;;;2.25;;
57071;SDS011;42956;51.366;11.298;2023-06-05T08:03:39;5.45;;;1.90;;
57071;SDS011;42956;51.366;11.298;2023-06-05T08:06:11;2.33;;;2.03;;
57071;SDS011;42956;51.366;11.298;2023-06-05T08:08:41;4.78;;;1.83;;
57071;SDS011;42956;51.366;11.298;2023-06-05T08:11:13;5.75;;;1.70;;
57071;SDS011;42956;51.366;11.298;2023-06-05T08:13:43;5.25;;;1.60;;
57071;SDS011;42956;51.366;11.298;2023-06-05T08:16:13;4.35;;;1.83;;
57071;SDS011;42956;51.366;11.298;2023-06-05T08:18:43;4.18;;;1.75;;
57071;SDS011;42956;51.366;11.298;2023-06-05T08:21:13;5.63;;;1.52;;
57071;SDS011;42956;51.366;11.298;2023-06-05T08:23:43;7.70;;;1.70;;
57071;SDS011;42956;51.366;11.298;2023-06-05T08:26:16;4.38;;;1.40;;
57071;SDS011;42956;51.366;11.298;2023-06-05T08:28:48;5.90;;;1.77;;
57071;SDS011;42956;51.366;11.298;2023-06-05T08:31:19;2.33;;;1.70;;
57071;SDS011;42956;51.366;11.298;2023-06-05T08:33:49;7.15;;;1.85;;
57071;SDS011;42956;51.366;11.298;2023-06-05T08:36:19;4.72;;;1.70;;
57071;SDS011;42956;51.366;11.298;2023-06-05T08:38:51;2.60;;;1.70;;
57071;SDS011;42956;51.366;11.298;2023-06-05T08:41:23;3.70;;;1.73;;
57071;SDS011;42956;51.366;11.298;2023-06-05T08:43:55;5.03;;;1.63;;
57071;SDS011;42956;51.366;11.298;2023-06-05T08:46:25;3.83;;;1.45;;
57071;SDS011;42956;51.366;11.298;2023-06-05T08:48:58;3.30;;;1.52;;
57071;SDS011;42956;51.366;11.298;2023-06-05T08:51:30;5.10;;;1.63;;
57071;SDS011;42956;51.366;11.298;2023-06-05T08:54:02;2.65;;;1.55;;
57071;SDS011;42956;51.366;11.298;2023-06-05T08:56:38;2.83;;;1.63;;
57071;SDS011;42956;51.366;11.298;2023-06-05T08:59:09;6.88;;;2.00;;
57071;SDS011;42956;51.366;11.298;2023-06-05T09:01:42;3.08;;;1.63;;
57071;SDS011;42956;51.366;11.298;2023-06-05T09:04:12;6.60;;;2.83;;
57071;SDS011;42956;51.366;11.298;2023-06-05T09:06:44;4.68;;;1.73;;
57071;SDS011;42956;51.366;11.298;2023-06-05T09:09:14;3.42;;;1.77;;
57071;SDS011;42956;51.366;11.298;2023-06-05T09:11:47;2.92;;;1.70;;
57071;SDS011;42956;51.366;11.298;2023-06-05T09:14:29;5.45;;;1.95;;
57071;SDS011;42956;51.366;11.298;2023-06-05T09:17:01;6.85;;;1.60;;
57071;SDS011;42956;51.366;11.298;2023-06-05T09:19:36;11.30;;;2.00;;
57071;SDS011;42956;51.366;11.298;2023-06-05T09:22:07;6.45;;;2.28;;
57071;SDS011;42956;51.366;11.298;2023-06-05T09:24:37;8.35;;;1.63;;
57071;SDS011;42956;51.366;11.298;2023-06-05T09:27:10;5.57;;;1.90;;
57071;SDS011;42956;51.366;11.298;2023-06-05T09:29:40;2.72;;;2.15;;
57071;SDS011;42956;51.366;11.298;2023-06-05T09:32:15;3.55;;;1.60;;
57071;SDS011;42956;51.366;11.298;2023-06-05T09:34:47;3.25;;;1.90;;
57071;SDS011;42956;51.366;11.298;2023-06-05T09:37:36;3.13;;;1.60;;
57071;SDS011;42956;51.366;11.298;2023-06-05T09:40:15;5.57;;;1.88;;
57071;SDS011;42956;51.366;11.298;2023-06-05T09:42:51;5.18;;;1.88;;
57071;SDS011;42956;51.366;11.298;2023-06-05T09:45:21;5.28;;;2.13;;
57071;SDS011;42956;51.366;11.298;2023-06-05T09:47:51;5.70;;;2.15;;
57071;SDS011;42956;51.366;11.298;2023-06-05T09:50:21;3.40;;;1.80;;
57071;SDS011;42956;51.366;11.298;2023-06-05T09:52:54;7.75;;;1.63;;
57071;SDS011;42956;51.366;11.298;2023-06-05T09:55:26;2.72;;;1.92;;
57071;SDS011;42956;51.366;11.298;2023-06-05T09:58:09;9.70;;;2.58;;
57071;SDS011;42956;51.366;11.298;2023-06-05T10:00:41;5.40;;;1.38;;
57071;SDS011;42956;51.366;11.298;2023-06-05T10:03:14;4.10;;;1.52;;
57071;SDS011;42956;51.366;11.298;2023-06-05T10:05:44;6.35;;;2.22;;
57071;SDS011;42956;51.366;11.298;2023-06-05T10:08:15;8.50;;;1.80;;
57071;SDS011;42956;51.366;11.298;2023-06-05T10:10:46;3.08;;;1.58;;
57071;SDS011;42956;51.366;11.298;2023-06-05T10:13:18;3.22;;;1.88;;
57071;SDS011;42956;51.366;11.298;2023-06-05T10:15:49;9.43;;;2.30;;
57071;SDS011;42956;51.366;11.298;2023-06-05T10:18:21;2.55;;;1.63;;
57071;SDS011;42956;51.366;11.298;2023-06-05T10:20:50;5.88;;;1.85;;
57071;SDS011;42956;51.366;11.298;2023-06-05T10:23:21;4.70;;;2.10;;
57071;SDS011;42956;51.366;11.298;2023-06-05T10:25:51;3.72;;;2.22;;
57071;SDS011;42956;51.366;11.298;2023-06-05T10:28:29;6.45;;;2.00;;
57071;SDS011;42956;51.366;11.298;2023-06-05T10:34:12;5.63;;;2.00;;
57071;SDS011;42956;51.366;11.298;2023-06-05T10:37:01;2.50;;;1.70;;
57071;SDS011;42956;51.366;11.298;2023-06-05T10:39:33;2.70;;;1.55;;
57071;SDS011;42956;51.366;11.298;2023-06-05T10:42:04;6.78;;;1.70;;
57071;SDS011;42956;51.366;11.298;2023-06-05T10:44:42;4.68;;;2.22;;
57071;SDS011;42956;51.366;11.298;2023-06-05T10:52:43;5.65;;;1.83;;
57071;SDS011;42956;51.366;11.298;2023-06-05T10:55:13;4.00;;;1.90;;
57071;SDS011;42956;51.366;11.298;2023-06-05T11:00:34;3.35;;;1.77;;
57071;SDS011;42956;51.366;11.298;2023-06-05T11:03:04;3.72;;;1.98;;
57071;SDS011;42956;51.366;11.298;2023-06-05T11:05:35;4.82;;;2.15;;
57071;SDS011;42956;51.366;11.298;2023-06-05T11:08:11;6.03;;;2.22;;
57071;SDS011;42956;51.366;11.298;2023-06-05T11:13:37;2.85;;;2.15;;
57071;SDS011;42956;51.366;11.298;2023-06-05T11:16:30;7.05;;;2.10;;
57071;SDS011;42956;51.366;11.298;2023-06-05T11:22:01;3.33;;;1.73;;
57071;SDS011;42956;51.366;11.298;2023-06-05T11:24:31;2.28;;;1.77;;
57071;SDS011;42956;51.366;11.298;2023-06-05T11:27:02;3.08;;;1.90;;
57071;SDS011;42956;51.366;11.298;2023-06-05T11:29:36;5.57;;;2.38;;
57071;SDS011;42956;51.366;11.298;2023-06-05T11:32:12;7.25;;;2.00;;
57071;SDS011;42956;51.366;11.298;2023-06-05T11:34:45;2.60;;;1.98;;
57071;SDS011;42956;51.366;11.298;2023-06-05T11:37:17;10.20;;;2.50;;
57071;SDS011;42956;51.366;11.298;2023-06-05T11:39:49;3.63;;;1.48;;
57071;SDS011;42956;51.366;11.298;2023-06-05T11:42:22;6.28;;;2.08;;
57071;SDS011;42956;51.366;11.298;2023-06-05T11:44:52;9.60;;;2.25;;
57071;SDS011;42956;51.366;11.298;2023-06-05T11:47:25;3.83;;;1.83;;
57071;SDS011;42956;51.366;11.298;2023-06-05T11:50:06;3.67;;;2.00;;
57071;SDS011;42956;51.366;11.298;2023-06-05T11:52:36;5.13;;;2.13;;
57071;SDS011;42956;51.366;11.298;2023-06-05T11:55:12;4.72;;;2.08;;
57071;SDS011;42956;51.366;11.298;2023-06-05T11:57:43;3.03;;;1.80;;
57071;SDS011;42956;51.366;11.298;2023-06-05T12:00:22;7.03;;;1.80;;
57071;SDS011;42956;51.366;11.298;2023-06-05T12:02:55;6.45;;;2.20;;
57071;SDS011;42956;51.366;11.298;2023-06-05T12:05:26;8.95;;;2.00;;
57071;SDS011;42956;51.366;11.298;2023-06-05T12:07:57;5.70;;;2.03;;
57071;SDS011;42956;51.366;11.298;2023-06-05T12:10:35;4.75;;;1.92;;
57071;SDS011;42956;51.366;11.298;2023-06-05T12:13:07;1.83;;;1.70;;
57071;SDS011;42956;51.366;11.298;2023-06-05T12:15:37;5.28;;;1.83;;
57071;SDS011;42956;51.366;11.298;2023-06-05T12:18:09;5.53;;;2.10;;
57071;SDS011;42956;51.366;11.298;2023-06-05T12:20:39;7.38;;;2.72;;
57071;SDS011;42956;51.366;11.298;2023-06-05T12:23:16;4.32;;;2.25;;
57071;SDS011;42956;51.366;11.298;2023-06-05T12:25:57;4.03;;;1.75;;
57071;SDS011;42956;51.366;11.298;2023-06-05T12:28:28;2.38;;;1.88;;
57071;SDS011;42956;51.366;11.298;2023-06-05T12:31:00;4.63;;;2.20;;
57071;SDS011;42956;51.366;11.298;2023-06-05T12:33:33;3.30;;;2.20;;
57071;SDS011;42956;51.366;11.298;2023-06-05T12:36:15;4.40;;;1.95;;
57071;SDS011;42956;51.366;11.298;2023-06-05T12:38:44;5.38;;;2.10;;
57071;SDS011;42956;51.366;11.298;2023-06-05T12:41:14;7.22;;;2.40;;
57071;SDS011;42956;51.366;11.298;2023-06-05T12:43:44;7.38;;;2.75;;
57071;SDS011;42956;51.366;11.298;2023-06-05T12:46:14;5.35;;;1.70;;
57071;SDS011;42956;51.366;11.298;2023-06-05T12:48:47;14.93;;;2.35;;
57071;SDS011;42956;51.366;11.298;2023-06-05T12:51:17;5.57;;;1.95;;
57071;SDS011;42956;51.366;11.298;2023-06-05T12:53:47;6.22;;;2.00;;
57071;SDS011;42956;51.366;11.298;2023-06-05T12:56:17;2.13;;;1.92;;
57071;SDS011;42956;51.366;11.298;2023-06-05T13:01:20;2.03;;;1.83;;
57071;SDS011;42956;51.366;11.298;2023-06-05T13:03:52;2.63;;;2.05;;
57071;SDS011;42956;51.366;11.298;2023-06-05T13:06:22;4.95;;;1.88;;
57071;SDS011;42956;51.366;11.298;2023-06-05T13:08:55;4.53;;;2.20;;
57071;SDS011;42956;51.366;11.298;2023-06-05T13:11:25;4.00;;;2.05;;
57071;SDS011;42956;51.366;11.298;2023-06-05T13:13:54;6.55;;;1.95;;
57071;SDS011;42956;51.366;11.298;2023-06-05T13:16:24;6.90;;;2.30;;
57071;SDS011;42956;51.366;11.298;2023-06-05T13:18:57;5.32;;;2.20;;
57071;SDS011;42956;51.366;11.298;2023-06-05T13:21:27;7.75;;;2.65;;
57071;SDS011;42956;51.366;11.298;2023-06-05T13:23:57;2.63;;;2.00;;
57071;SDS011;42956;51.366;11.298;2023-06-05T13:26:27;2.63;;;2.30;;
57071;SDS011;42956;51.366;11.298;2023-06-05T13:28:57;5.07;;;1.90;;
57071;SDS011;42956;51.366;11.298;2023-06-05T13:31:27;8.95;;;2.10;;
57071;SDS011;42956;51.366;11.298;2023-06-05T13:34:00;4.72;;;2.00;;
57071;SDS011;42956;51.366;11.298;2023-06-05T13:36:30;7.85;;;1.98;;
57071;SDS011;42956;51.366;11.298;2023-06-05T13:39:00;4.60;;;2.08;;
57071;SDS011;42956;51.366;11.298;2023-06-05T13:41:31;5.40;;;2.40;;
57071;SDS011;42956;51.366;11.298;2023-06-05T13:44:00;5.85;;;2.22;;
57071;SDS011;42956;51.366;11.298;2023-06-05T13:46:31;5.53;;;3.15;;
57071;SDS011;42956;51.366;11.298;2023-06-05T13:49:03;7.97;;;2.15;;
57071;SDS011;42956;51.366;11.298;2023-06-05T13:51:34;3.33;;;1.90;;
57071;SDS011;42956;51.366;11.298;2023-06-05T13:54:05;3.50;;;2.13;;
57071;SDS011;42956;51.366;11.298;2023-06-05T13:56:35;5.70;;;2.25;;
57071;SDS011;42956;51.366;11.298;2023-06-05T13:59:05;2.45;;;1.80;;
57071;SDS011;42956;51.366;11.298;2023-06-05T14:01:34;4.90;;;2.47;;
57071;SDS011;42956;51.366;11.298;2023-06-05T14:04:10;4.93;;;2.67;;
57071;SDS011;42956;51.366;11.298;2023-06-05T14:06:40;3.65;;;2.50;;
57071;SDS011;42956;51.366;11.298;2023-06-05T14:09:10;3.05;;;2.30;;
57071;SDS011;42956;51.366;11.298;2023-06-05T14:11:40;3.85;;;2.17;;
57071;SDS011;42956;51.366;11.298;2023-06-05T14:14:11;2.47;;;1.90;;
57071;SDS011;42956;51.366;11.298;2023-06-05T14:16:41;8.75;;;2.45;;
57071;SDS011;42956;51.366;11.298;2023-06-05T14:19:14;5.07;;;2.55;;
57071;SDS011;42956;51.366;11.298;2023-06-05T14:21:43;7.18;;;2.08;;
57071;SDS011;42956;51.366;11.298;2023-06-05T14:24:13;5.03;;;2.40;;
57071;SDS011;42956;51.366;11.298;2023-06-05T14:26:44;3.25;;;2.40;;
57071;SDS011;42956;51.366;11.298;2023-06-05T14:29:15;4.88;;;2.45;;
57071;SDS011;42956;51.366;11.298;2023-06-05T14:31:45;6.03;;;2.40;;
57071;SDS011;42956;51.366;11.298;2023-06-05T14:34:17;2.80;;;2.05;;
57071;SDS011;42956;51.366;11.298;2023-06-05T14:36:47;3.55;;;1.98;;
57071;SDS011;42956;51.366;11.298;2023-06-05T14:39:19;6.20;;;2.23;;
57071;SDS011;42956;51.366;11.298;2023-06-05T14:41:49;5.35;;;1.90;;
57071;SDS011;42956;51.366;11.298;2023-06-05T14:44:19;2.83;;;1.90;;
57071;SDS011;42956;51.366;11.298;2023-06-05T14:46:52;4.55;;;2.58;;
57071;SDS011;42956;51.366;11.298;2023-06-05T14:49:25;2.30;;;2.10;;
57071;SDS011;42956;51.366;11.298;2023-06-05T14:51:55;5.10;;;2.42;;
57071;SDS011;42956;51.366;11.298;2023-06-05T14:54:25;4.03;;;2.05;;
57071;SDS011;42956;51.366;11.298;2023-06-05T14:56:54;2.50;;;2.10;;
57071;SDS011;42956;51.366;11.298;2023-06-05T14:59:24;2.95;;;2.20;;
57071;SDS011;42956;51.366;11.298;2023-06-05T15:01:55;7.47;;;2.00;;
57071;SDS011;42956;51.366;11.298;2023-06-05T15:04:28;5.55;;;2.45;;
57071;SDS011;42956;51.366;11.298;2023-06-05T15:06:58;3.35;;;2.10;;
57071;SDS011;42956;51.366;11.298;2023-06-05T15:09:28;3.72;;;2.50;;
57071;SDS011;42956;51.366;11.298;2023-06-05T15:11:58;6.32;;;2.60;;
57071;SDS011;42956;51.366;11.298;2023-06-05T15:14:27;2.95;;;2.28;;
57071;SDS011;42956;51.366;11.298;2023-06-05T15:16:57;2.20;;;1.80;;
57071;SDS011;42956;51.366;11.298;2023-06-05T15:19:30;5.28;;;2.42;;
57071;SDS011;42956;51.366;11.298;2023-06-05T15:22:00;4.30;;;1.95;;
57071;SDS011;42956;51.366;11.298;2023-06-05T15:24:32;6.65;;;2.92;;